createdAt,value
2023-05-08T00:03:31.383Z,6.63
2023-05-08T00:05:59.298Z,6.07
2023-05-08T00:08:26.897Z,6.40
2023-05-08T00:10:54.356Z,5.88
2023-05-08T00:13:24.014Z,7.07
2023-05-08T00:15:51.895Z,6.50
2023-05-08T00:18:19.082Z,6.68
2023-05-08T00:20:46.853Z,5.95
2023-05-08T00:23:13.898Z,6.75
2023-05-08T00:25:41.657Z,7.15
2023-05-08T00:28:10.809Z,6.82
2023-05-08T00:30:38.570Z,6.60
2023-05-08T00:33:06.361Z,6.53
2023-05-08T00:35:33.811Z,6.40
2023-05-08T00:38:02.877Z,6.28
2023-05-08T00:40:31.048Z,7.00
2023-05-08T00:43:00.508Z,6.80
2023-05-08T00:45:35.010Z,7.68
2023-05-08T00:48:04.394Z,6.80
2023-05-08T00:50:33.093Z,7.10
2023-05-08T00:53:05.114Z,6.30
2023-05-08T00:55:33.412Z,6.68
2023-05-08T00:58:00.563Z,6.93
2023-05-08T01:00:29.461Z,6.80
2023-05-08T01:02:57.414Z,7.43
2023-05-08T01:05:30.502Z,7.32
2023-05-08T01:07:58.225Z,6.40
2023-05-08T01:10:34.916Z,7.07
2023-05-08T01:13:29.476Z,6.75
2023-05-08T01:16:20.538Z,7.50
2023-05-08T01:19:23.376Z,7.57
2023-05-08T01:22:16.393Z,7.00
2023-05-08T01:24:50.766Z,6.10
2023-05-08T01:27:46.398Z,6.40
2023-05-08T01:30:28.036Z,7.82
2023-05-08T01:33:08.233Z,6.95
2023-05-08T01:35:51.186Z,8.25
2023-05-08T01:38:52.493Z,8.57
2023-05-08T01:41:28.180Z,7.65
2023-05-08T01:44:16.828Z,7.63
2023-05-08T01:46:51.281Z,8.02
2023-05-08T01:49:26.837Z,7.53
2023-05-08T01:52:01.108Z,6.95
2023-05-08T01:54:34.454Z,7.35
2023-05-08T01:57:04.543Z,7.47
2023-05-08T01:59:35.192Z,7.93
2023-05-08T02:02:04.571Z,7.65
2023-05-08T02:04:37.288Z,7.95
2023-05-08T02:07:08.109Z,7.32
2023-05-08T02:09:35.762Z,7.03
2023-05-08T02:12:07.058Z,6.65
2023-05-08T02:14:36.424Z,7.90
2023-05-08T02:17:06.574Z,7.38
2023-05-08T02:19:36.538Z,7.60
2023-05-08T02:22:06.120Z,7.85
2023-05-08T02:24:35.846Z,7.72
2023-05-08T02:27:04.486Z,6.72
2023-05-08T02:29:32.733Z,7.03
2023-05-08T02:32:02.472Z,7.32
2023-05-08T02:34:31.616Z,7.78
2023-05-08T02:37:00.519Z,5.95
2023-05-08T02:39:31.291Z,7.13
2023-05-08T02:41:58.793Z,6.22
2023-05-08T02:44:26.235Z,6.82
2023-05-08T02:47:06.955Z,6.95
2023-05-08T02:49:46.847Z,5.93
2023-05-08T02:52:24.248Z,6.07
2023-05-08T02:55:16.035Z,6.80
2023-05-08T02:58:02.720Z,5.95
2023-05-08T03:00:34.033Z,6.93
2023-05-08T03:03:14.664Z,7.38
2023-05-08T03:05:50.224Z,7.63
2023-05-08T03:08:24.362Z,8.10
2023-05-08T03:10:54.259Z,8.32
2023-05-08T03:13:22.487Z,7.18
2023-05-08T03:16:03.715Z,5.57
2023-05-08T03:18:40.540Z,5.82
2023-05-08T03:21:13.352Z,5.70
2023-05-08T03:23:46.313Z,5.20
2023-05-08T03:26:22.133Z,6.00
2023-05-08T03:28:51.510Z,7.20
2023-05-08T03:31:24.216Z,8.40
2023-05-08T03:33:58.344Z,7.45
2023-05-08T03:36:29.123Z,8.20
2023-05-08T03:38:59.955Z,8.20
2023-05-08T03:41:28.082Z,8.15
2023-05-08T03:43:57.774Z,7.47
2023-05-08T03:46:27.499Z,8.45
2023-05-08T03:49:01.323Z,7.85
2023-05-08T03:51:32.681Z,9.32
2023-05-08T03:54:01.628Z,8.30
2023-05-08T03:56:32.956Z,8.10
2023-05-08T03:59:15.638Z,7.85
2023-05-08T04:01:56.266Z,8.82
2023-05-08T04:04:46.216Z,8.95
2023-05-08T04:07:32.286Z,8.02
2023-05-08T04:10:28.471Z,7.65
2023-05-08T04:13:08.575Z,8.35
2023-05-08T04:15:51.953Z,8.32
2023-05-08T04:18:29.367Z,7.90
2023-05-08T04:21:02.705Z,8.20
2023-05-08T04:23:35.083Z,8.57
2023-05-08T04:26:05.645Z,9.43
2023-05-08T04:28:35.506Z,8.63
2023-05-08T04:31:06.206Z,8.50
2023-05-08T04:33:35.978Z,8.00
2023-05-08T04:36:05.226Z,8.70
2023-05-08T04:38:39.966Z,8.27
2023-05-08T04:41:09.284Z,8.55
2023-05-08T04:43:38.935Z,8.07
2023-05-08T04:46:09.544Z,8.05
2023-05-08T04:48:37.485Z,8.32
2023-05-08T04:51:05.005Z,8.35
2023-05-08T04:53:33.527Z,7.75
2023-05-08T04:56:03.707Z,8.82
2023-05-08T04:58:30.925Z,8.45
2023-05-08T05:01:04.058Z,8.60
2023-05-08T05:03:33.834Z,8.25
2023-05-08T05:06:03.683Z,8.25
2023-05-08T05:08:32.603Z,7.15
2023-05-08T05:11:02.415Z,7.57
2023-05-08T05:13:31.850Z,8.23
2023-05-08T05:16:03.493Z,8.02
2023-05-08T05:18:32.592Z,7.32
2023-05-08T05:21:05.018Z,7.35
2023-05-08T05:23:33.537Z,7.15
2023-05-08T05:26:04.919Z,6.80
2023-05-08T05:28:36.142Z,7.32
2023-05-08T05:31:05.333Z,7.15
2023-05-08T05:33:34.094Z,6.57
2023-05-08T05:36:04.041Z,8.32
2023-05-08T05:38:32.975Z,7.03
2023-05-08T05:41:06.163Z,7.60
2023-05-08T05:46:10.376Z,7.07
2023-05-08T05:48:44.101Z,6.63
2023-05-08T05:51:13.072Z,5.90
2023-05-08T05:53:45.370Z,6.50
2023-05-08T05:56:14.160Z,6.95
2023-05-08T05:58:47.787Z,6.85
2023-05-08T06:01:16.140Z,6.75
2023-05-08T06:03:45.321Z,6.18
2023-05-08T06:06:15.469Z,6.88
2023-05-08T06:08:46.101Z,5.80
2023-05-08T06:11:14.351Z,5.45
2023-05-08T06:13:42.467Z,6.18
2023-05-08T06:16:11.469Z,5.97
2023-05-08T06:18:42.443Z,6.60
2023-05-08T06:21:12.485Z,5.82
2023-05-08T06:23:44.037Z,6.05
2023-05-08T06:26:12.481Z,6.60
2023-05-08T06:28:43.850Z,6.32
2023-05-08T06:31:13.170Z,6.20
2023-05-08T06:33:41.609Z,6.57
2023-05-08T06:36:11.650Z,6.75
2023-05-08T06:38:39.864Z,6.15
2023-05-08T06:41:07.617Z,5.93
2023-05-08T06:43:35.524Z,5.50
2023-05-08T06:46:09.660Z,6.07
2023-05-08T06:48:41.993Z,5.45
2023-05-08T06:51:13.745Z,6.43
2023-05-08T06:53:45.681Z,5.70
2023-05-08T06:56:13.273Z,6.22
2023-05-08T06:58:41.651Z,5.60
2023-05-08T07:01:10.114Z,5.70
2023-05-08T07:03:42.136Z,5.30
2023-05-08T07:06:12.728Z,5.93
2023-05-08T07:08:41.289Z,5.15
2023-05-08T07:11:10.863Z,6.03
2023-05-08T07:13:39.013Z,6.45
2023-05-08T07:16:12.236Z,5.82
2023-05-08T07:18:45.411Z,6.00
2023-05-08T07:21:16.317Z,5.30
2023-05-08T07:23:45.347Z,5.63
2023-05-08T07:26:14.338Z,6.05
2023-05-08T07:28:52.116Z,5.65
2023-05-08T07:31:21.305Z,5.80
2023-05-08T07:33:54.639Z,5.53
2023-05-08T07:36:23.511Z,5.38
2023-05-08T07:38:50.975Z,5.50
2023-05-08T07:41:18.852Z,5.15
2023-05-08T07:43:46.501Z,5.50
2023-05-08T07:46:18.277Z,5.10
2023-05-08T07:48:46.079Z,5.15
2023-05-08T07:51:15.388Z,5.40
2023-05-08T07:53:44.964Z,5.55
2023-05-08T07:56:12.779Z,5.28
2023-05-08T07:58:43.098Z,4.72
2023-05-08T08:01:10.567Z,5.07
2023-05-08T08:03:38.208Z,4.55
2023-05-08T08:06:06.323Z,4.85
2023-05-08T08:08:34.589Z,3.78
2023-05-08T08:11:03.834Z,4.22
2023-05-08T08:13:36.185Z,4.65
2023-05-08T08:16:05.349Z,4.63
2023-05-08T08:18:38.621Z,4.65
2023-05-08T08:21:09.653Z,4.80
2023-05-08T08:23:37.869Z,4.78
2023-05-08T08:26:09.128Z,4.10
2023-05-08T08:28:36.882Z,4.20
2023-05-08T08:31:05.495Z,3.83
2023-05-08T08:33:32.903Z,4.10
2023-05-08T08:36:00.027Z,3.85
2023-05-08T08:38:31.275Z,4.53
2023-05-08T08:41:00.028Z,4.20
2023-05-08T08:43:30.452Z,4.22
2023-05-08T08:45:59.855Z,4.05
2023-05-08T08:48:31.226Z,4.00
2023-05-08T08:51:05.833Z,3.75
2023-05-08T08:53:44.361Z,4.30
2023-05-08T08:56:18.076Z,3.47
2023-05-08T08:58:52.114Z,3.42
2023-05-08T09:01:21.714Z,3.80
2023-05-08T09:03:52.722Z,3.80
2023-05-08T09:06:22.244Z,4.25
2023-05-08T09:08:55.208Z,4.07
2023-05-08T09:13:51.883Z,3.60
2023-05-08T09:16:18.942Z,3.58
2023-05-08T09:18:53.322Z,3.92
2023-05-08T09:21:23.952Z,3.72
2023-05-08T09:24:06.298Z,3.40
2023-05-08T09:26:37.171Z,3.88
2023-05-08T09:29:11.954Z,3.50
2023-05-08T09:31:42.373Z,3.60
2023-05-08T09:34:30.496Z,3.30
2023-05-08T09:37:11.976Z,3.85
2023-05-08T09:39:43.747Z,3.42
2023-05-08T09:42:15.208Z,3.35
2023-05-08T09:44:51.407Z,3.60
2023-05-08T09:47:25.678Z,3.60
2023-05-08T09:50:09.509Z,3.85
2023-05-08T09:52:38.475Z,3.65
2023-05-08T09:55:11.551Z,3.17
2023-05-08T09:57:41.158Z,3.25
2023-05-08T10:00:11.705Z,3.33
2023-05-08T10:02:55.397Z,3.63
2023-05-08T10:05:28.228Z,3.08
2023-05-08T10:07:56.411Z,3.15
2023-05-08T10:10:31.132Z,3.22
2023-05-08T10:12:59.207Z,2.97
2023-05-08T10:15:34.568Z,3.15
2023-05-08T10:18:08.022Z,2.63
2023-05-08T10:20:42.603Z,3.33
2023-05-08T10:23:23.940Z,3.33
2023-05-08T10:26:02.247Z,3.25
2023-05-08T10:28:37.555Z,3.15
2023-05-08T10:31:08.368Z,3.53
2023-05-08T10:33:42.328Z,2.97
2023-05-08T10:36:13.684Z,3.00
2023-05-08T10:38:44.800Z,3.28
2023-05-08T10:41:20.436Z,3.33
2023-05-08T10:43:52.409Z,3.20
2023-05-08T10:46:30.830Z,2.95
2023-05-08T10:49:08.102Z,3.15
2023-05-08T10:51:57.800Z,3.10
2023-05-08T10:54:29.291Z,3.08
2023-05-08T10:57:11.907Z,2.92
2023-05-08T10:59:51.394Z,3.10
2023-05-08T11:02:38.198Z,3.40
2023-05-08T11:05:24.723Z,3.05
2023-05-08T11:07:57.946Z,3.38
2023-05-08T11:10:33.700Z,3.00
2023-05-08T11:13:01.885Z,3.10
2023-05-08T11:15:44.239Z,3.45
2023-05-08T11:18:12.436Z,3.20
2023-05-08T11:20:57.832Z,3.15
2023-05-08T11:23:36.919Z,3.45
2023-05-08T11:26:08.204Z,2.90
2023-05-08T11:28:41.359Z,2.88
2023-05-08T11:31:12.555Z,3.17
2023-05-08T11:33:41.952Z,3.40
2023-05-08T11:36:22.354Z,3.40
2023-05-08T11:39:13.015Z,3.38
2023-05-08T11:41:40.262Z,2.95
2023-05-08T11:44:22.466Z,3.00
2023-05-08T11:46:52.298Z,3.00
2023-05-08T11:49:29.001Z,2.58
2023-05-08T11:51:58.969Z,3.00
2023-05-08T11:54:30.600Z,2.67
2023-05-08T11:57:00.471Z,2.78
2023-05-08T11:59:28.851Z,2.67
2023-05-08T12:02:08.687Z,2.58
2023-05-08T12:04:48.254Z,2.97
2023-05-08T12:07:16.855Z,2.72
2023-05-08T12:09:49.238Z,2.75
2023-05-08T12:12:17.402Z,3.10
2023-05-08T12:14:49.848Z,2.58
2023-05-08T12:17:21.982Z,2.72
2023-05-08T12:19:54.915Z,2.78
2023-05-08T12:22:25.102Z,2.95
2023-05-08T12:24:55.068Z,7.20
2023-05-08T12:27:22.578Z,2.88
2023-05-08T12:29:52.796Z,2.55
2023-05-08T12:32:21.842Z,3.15
2023-05-08T12:34:49.792Z,2.88
2023-05-08T12:37:25.315Z,3.10
2023-05-08T12:39:56.248Z,2.55
2023-05-08T12:42:41.746Z,2.65
2023-05-08T12:45:10.422Z,2.58
2023-05-08T12:47:40.816Z,2.80
2023-05-08T12:50:12.747Z,3.17
2023-05-08T12:52:40.991Z,3.28
2023-05-08T12:55:29.372Z,3.10
2023-05-08T12:58:14.767Z,2.53
2023-05-08T13:00:49.659Z,2.45
2023-05-08T13:03:29.782Z,2.63
2023-05-08T13:05:59.446Z,2.35
2023-05-08T13:08:34.481Z,2.97
2023-05-08T13:11:04.331Z,2.58
2023-05-08T13:13:34.087Z,2.30
2023-05-08T13:16:06.557Z,2.30
2023-05-08T13:18:36.904Z,2.72
2023-05-08T13:21:05.169Z,2.38
2023-05-08T13:23:35.018Z,2.65
2023-05-08T13:26:03.916Z,2.40
2023-05-08T13:28:31.542Z,2.38
2023-05-08T13:31:00.159Z,2.42
2023-05-08T13:33:31.930Z,2.20
2023-05-08T13:36:00.740Z,2.72
2023-05-08T13:38:28.769Z,2.28
2023-05-08T13:40:56.993Z,2.17
2023-05-08T13:43:29.473Z,2.22
2023-05-08T13:45:56.363Z,2.25
2023-05-08T13:48:24.037Z,2.20
2023-05-08T13:50:52.090Z,2.28
2023-05-08T13:53:20.181Z,2.15
2023-05-08T13:55:47.575Z,2.10
2023-05-08T13:58:15.038Z,2.20
2023-05-08T14:00:42.637Z,1.83
2023-05-08T14:03:10.171Z,2.20
2023-05-08T14:05:37.306Z,2.10
2023-05-08T14:08:05.251Z,2.30
2023-05-08T14:10:32.778Z,1.70
2023-05-08T14:13:00.620Z,2.03
2023-05-08T14:15:36.468Z,1.80
2023-05-08T14:18:05.207Z,2.15
2023-05-08T14:20:32.558Z,2.30
2023-05-08T14:23:00.341Z,1.70
2023-05-08T14:25:28.376Z,1.90
2023-05-08T14:27:56.131Z,1.60
2023-05-08T14:30:23.313Z,2.00
2023-05-08T14:32:51.109Z,1.60
2023-05-08T14:35:18.470Z,1.75
2023-05-08T14:37:48.518Z,1.73
2023-05-08T14:40:15.922Z,1.92
2023-05-08T14:42:44.901Z,2.00
2023-05-08T14:45:12.824Z,1.65
2023-05-08T14:47:40.766Z,1.73
2023-05-08T14:50:12.685Z,1.90
2023-05-08T14:52:40.402Z,1.77
2023-05-08T14:55:08.843Z,1.60
2023-05-08T14:57:36.795Z,1.60
2023-05-08T15:00:08.582Z,1.67
2023-05-08T15:02:35.935Z,1.45
2023-05-08T15:05:08.255Z,1.58
2023-05-08T15:07:40.737Z,1.40
2023-05-08T15:10:10.157Z,1.70
2023-05-08T15:12:38.058Z,1.60
2023-05-08T15:15:06.568Z,1.75
2023-05-08T15:17:36.782Z,1.48
2023-05-08T15:20:06.530Z,1.60
2023-05-08T15:22:38.924Z,1.55
2023-05-08T15:25:07.504Z,1.60
2023-05-08T15:27:35.662Z,1.60
2023-05-08T15:30:04.034Z,1.40
2023-05-08T15:32:32.370Z,1.23
2023-05-08T15:35:00.264Z,1.50
2023-05-08T15:37:28.644Z,1.35
2023-05-08T15:39:56.765Z,1.50
2023-05-08T15:42:27.418Z,1.35
2023-05-08T15:44:59.215Z,1.40
2023-05-08T15:47:27.864Z,1.40
2023-05-08T15:49:56.198Z,1.30
2023-05-08T15:52:24.857Z,1.67
2023-05-08T15:54:52.293Z,1.50
2023-05-08T15:57:20.256Z,1.73
2023-05-08T15:59:48.359Z,1.48
2023-05-08T16:02:16.017Z,1.52
2023-05-08T16:04:44.109Z,1.30
2023-05-08T16:07:12.177Z,1.70
2023-05-08T16:09:40.036Z,1.50
2023-05-08T16:12:08.208Z,1.48
2023-05-08T16:14:36.690Z,1.60
2023-05-08T16:17:04.705Z,1.60
2023-05-08T16:19:38.186Z,1.30
2023-05-08T16:22:07.104Z,1.60
2023-05-08T16:24:34.295Z,1.60
2023-05-08T16:27:02.409Z,1.30
2023-05-08T16:29:30.213Z,1.50
2023-05-08T16:31:58.073Z,1.48
2023-05-08T16:34:26.455Z,1.48
2023-05-08T16:36:54.134Z,1.40
2023-05-08T16:39:25.677Z,1.40
2023-05-08T16:41:53.324Z,2.08
2023-05-08T16:44:21.870Z,2.67
2023-05-08T16:46:49.673Z,2.80
2023-05-08T16:49:17.318Z,2.83
2023-05-08T16:51:45.624Z,3.03
2023-05-08T16:54:13.690Z,2.55
2023-05-08T16:56:42.680Z,2.60
2023-05-08T16:59:10.673Z,2.60
2023-05-08T17:01:44.593Z,3.20
2023-05-08T17:04:12.916Z,3.00
2023-05-08T17:06:41.282Z,2.88
2023-05-08T17:09:10.083Z,3.17
2023-05-08T17:11:41.676Z,3.33
2023-05-08T17:14:10.383Z,2.88
2023-05-08T17:16:42.594Z,2.80
2023-05-08T17:19:11.563Z,3.20
2023-05-08T17:21:47.980Z,3.00
2023-05-08T17:24:17.507Z,3.35
2023-05-08T17:26:49.990Z,3.15
2023-05-08T17:29:18.483Z,3.13
2023-05-08T17:31:47.407Z,2.58
2023-05-08T17:34:16.647Z,3.00
2023-05-08T17:36:44.972Z,3.10
2023-05-08T17:39:13.355Z,3.15
2023-05-08T17:41:41.683Z,3.78
2023-05-08T17:44:12.886Z,3.67
2023-05-08T17:46:41.948Z,3.67
2023-05-08T17:49:19.577Z,3.50
2023-05-08T17:51:49.248Z,3.90
2023-05-08T17:54:17.621Z,3.85
2023-05-08T17:56:57.840Z,4.35
2023-05-08T17:59:27.755Z,3.70
2023-05-08T18:01:56.325Z,3.63
2023-05-08T18:04:31.767Z,5.05
2023-05-08T18:07:02.294Z,3.65
2023-05-08T18:09:31.510Z,3.83
2023-05-08T18:12:03.358Z,4.28
2023-05-08T18:14:33.340Z,3.35
2023-05-08T18:17:02.796Z,3.58
2023-05-08T18:19:34.842Z,3.30
2023-05-08T18:22:05.481Z,3.70
2023-05-08T18:24:37.063Z,3.35
2023-05-08T18:27:07.922Z,3.40
2023-05-08T18:29:38.788Z,3.33
2023-05-08T18:32:13.835Z,3.50
2023-05-08T18:34:45.520Z,3.13
2023-05-08T18:37:13.891Z,3.97
2023-05-08T18:39:43.428Z,3.20
2023-05-08T18:42:15.066Z,3.92
2023-05-08T18:44:45.927Z,3.65
2023-05-08T18:47:14.835Z,3.65
2023-05-08T18:49:47.324Z,3.20
2023-05-08T18:54:47.075Z,4.05
2023-05-08T18:57:16.851Z,4.00
2023-05-08T18:59:45.316Z,3.72
2023-05-08T19:02:14.469Z,4.35
2023-05-08T19:04:43.664Z,4.43
2023-05-08T19:07:12.630Z,3.80
2023-05-08T19:09:44.223Z,3.85
2023-05-08T19:12:15.660Z,3.80
2023-05-08T19:14:46.524Z,3.90
2023-05-08T19:17:14.678Z,4.13
2023-05-08T19:19:46.907Z,3.42
2023-05-08T19:22:15.943Z,3.90
2023-05-08T19:24:48.786Z,4.75
2023-05-08T19:27:18.037Z,4.07
2023-05-08T19:29:46.783Z,3.92
2023-05-08T19:32:15.851Z,4.22
2023-05-08T19:34:48.047Z,4.07
2023-05-08T19:37:16.586Z,4.22
2023-05-08T19:39:47.391Z,3.97
2023-05-08T19:42:18.625Z,4.25
2023-05-08T19:44:48.888Z,4.30
2023-05-08T19:47:22.299Z,4.13
2023-05-08T19:49:51.303Z,3.88
2023-05-08T19:52:21.497Z,4.00
2023-05-08T19:54:50.958Z,4.10
2023-05-08T19:57:24.000Z,4.30
2023-05-08T19:59:53.064Z,3.90
2023-05-08T20:02:21.810Z,3.90
2023-05-08T20:05:14.575Z,4.10
2023-05-08T20:07:38.522Z,3.97
2023-05-08T20:10:07.412Z,4.22
2023-05-08T20:12:37.903Z,4.10
2023-05-08T20:15:06.995Z,4.63
2023-05-08T20:17:34.598Z,4.10
2023-05-08T20:20:03.824Z,4.28
2023-05-08T20:22:31.442Z,3.90
2023-05-08T20:25:00.494Z,4.28
2023-05-08T20:27:30.328Z,3.80
2023-05-08T20:30:03.156Z,4.20
2023-05-08T20:32:31.478Z,3.70
2023-05-08T20:35:02.690Z,3.95
2023-05-08T20:37:31.666Z,3.95
2023-05-08T20:40:00.459Z,4.38
2023-05-08T20:42:31.315Z,3.92
2023-05-08T20:45:01.944Z,4.32
2023-05-08T20:47:34.232Z,4.63
2023-05-08T20:50:05.305Z,3.97
2023-05-08T20:52:38.459Z,3.97
2023-05-08T20:55:09.324Z,4.25
2023-05-08T20:57:40.435Z,4.32
2023-05-08T21:00:13.249Z,4.18
2023-05-08T21:02:46.965Z,4.22
2023-05-08T21:05:19.181Z,4.03
2023-05-08T21:07:47.670Z,4.05
2023-05-08T21:10:16.915Z,4.45
2023-05-08T21:12:47.269Z,4.60
2023-05-08T21:15:16.287Z,3.63
2023-05-08T21:17:46.909Z,3.53
2023-05-08T21:20:18.433Z,4.25
2023-05-08T21:22:49.929Z,3.95
2023-05-08T21:25:33.839Z,4.10
2023-05-08T21:28:06.712Z,4.38
2023-05-08T21:30:38.479Z,4.55
2023-05-08T21:33:14.289Z,4.63
2023-05-08T21:35:44.150Z,4.68
2023-05-08T21:38:12.609Z,4.20
2023-05-08T21:40:46.225Z,5.05
2023-05-08T21:43:14.414Z,5.00
2023-05-08T21:45:48.169Z,5.72
2023-05-08T21:48:19.445Z,8.02
2023-05-08T21:50:54.720Z,6.13
2023-05-08T21:53:26.472Z,7.32
2023-05-08T21:56:03.740Z,7.60
2023-05-08T21:58:37.962Z,7.35
2023-05-08T22:01:09.784Z,5.22
2023-05-08T22:03:38.582Z,4.65
2023-05-08T22:06:08.123Z,4.40
2023-05-08T22:08:39.626Z,4.97
2023-05-08T22:11:08.584Z,5.10
2023-05-08T22:13:37.451Z,5.38
2023-05-08T22:16:10.643Z,5.20
2023-05-08T22:18:42.474Z,5.80
2023-05-08T22:21:14.551Z,5.75
2023-05-08T22:23:43.188Z,5.60
2023-05-08T22:26:12.150Z,5.10
2023-05-08T22:28:41.038Z,5.60
2023-05-08T22:31:09.808Z,5.93
2023-05-08T22:33:37.442Z,5.85
2023-05-08T22:36:05.977Z,5.70
2023-05-08T22:38:39.954Z,5.78
2023-05-08T22:41:09.139Z,5.70
2023-05-08T22:43:38.411Z,5.82
2023-05-08T22:46:06.563Z,5.47
2023-05-08T22:48:35.160Z,5.13
2023-05-08T22:51:03.649Z,5.22
2023-05-08T22:53:32.610Z,5.00
2023-05-08T22:56:00.902Z,3.65
2023-05-08T22:58:31.521Z,4.32
2023-05-08T23:01:00.233Z,4.35
2023-05-08T23:03:35.395Z,4.22
2023-05-08T23:06:03.728Z,3.90
2023-05-08T23:08:32.416Z,3.85
2023-05-08T23:11:00.278Z,4.07
2023-05-08T23:13:32.168Z,4.15
2023-05-08T23:16:00.389Z,4.05
2023-05-08T23:18:34.572Z,4.03
2023-05-08T23:21:08.090Z,3.50
2023-05-08T23:23:35.678Z,3.97
2023-05-08T23:26:05.658Z,4.30
2023-05-08T23:28:37.185Z,3.67
2023-05-08T23:31:05.111Z,4.18
2023-05-08T23:33:32.736Z,4.60
2023-05-08T23:36:01.150Z,3.80
2023-05-08T23:38:29.110Z,3.63
2023-05-08T23:40:57.136Z,4.82
2023-05-08T23:43:28.071Z,4.13
2023-05-08T23:45:56.289Z,3.67
2023-05-08T23:48:25.978Z,3.85
2023-05-08T23:50:53.812Z,3.88
2023-05-08T23:53:22.320Z,4.15
2023-05-08T23:55:51.043Z,4.40
2023-05-08T23:58:21.893Z,3.45
